< Typhoon 196025 1960 Season Typhoon 196027 >
Typhoon 196026 (OPHELIA)
General InformationTrack Information on Google Maps || Disaster Info.ResourceGoogle EarthGE AnimationAtom FeedGeoJSON
Detalied Best Track (Time Zone = UTC)
Year Month Day Hour Lat. Long. Pressure (hPa) Wind (kt) Class Image Chart
1960 11 25 00 7.5 152.0 1006 0 2 -- Chart
1960 11 25 06 7.7 151.6 1003 0 2 -- Chart
1960 11 25 12 8.1 151.3 1005 0 2 -- Chart
1960 11 25 18 8.5 151.0 1002 0 2 -- Chart
1960 11 26 00 8.9 150.6 1003 0 2 -- Chart
1960 11 26 06 9.2 150.2 1002 0 2 -- Chart
1960 11 26 12 9.5 149.8 1002 0 2 -- Chart
1960 11 26 18 9.7 149.4 1000 0 2 -- Chart
1960 11 27 00 10.0 148.8 1000 0 2 -- Chart
1960 11 27 06 10.0 148.3 1000 0 2 -- Chart
1960 11 27 12 9.8 148.0 1000 0 2 -- Chart
1960 11 27 18 9.7 147.9 1000 0 2 -- Chart
1960 11 28 00 9.6 147.8 995 0 9 -- Chart
1960 11 28 06 9.4 147.6 995 0 9 -- Chart
1960 11 28 12 9.2 147.3 990 0 9 -- Chart
1960 11 28 18 9.2 147.0 980 0 9 -- Chart
1960 11 29 00 9.3 146.4 975 0 9 -- Chart
1960 11 29 06 9.8 145.5 970 0 9 -- Chart
1960 11 29 12 10.1 143.8 965 0 9 -- Chart
1960 11 29 18 10.3 142.3 955 0 9 -- Chart
1960 11 30 00 10.1 140.8 950 0 9 -- Chart
1960 11 30 06 10.4 139.4 945 0 9 -- Chart
1960 11 30 12 11.0 137.7 940 0 9 -- Chart
1960 11 30 18 11.3 136.1 940 0 9 -- Chart
1960 12 1 00 12.0 134.8 935 0 9 -- Chart
1960 12 1 06 12.5 133.8 935 0 9 -- Chart
1960 12 1 12 12.9 133.3 940 0 9 -- Chart
1960 12 1 18 13.5 132.8 940 0 9 -- Chart
1960 12 2 00 14.2 132.5 940 0 9 -- Chart
1960 12 2 06 14.9 132.7 940 0 9 -- Chart
1960 12 2 12 15.5 133.0 940 0 9 -- Chart
1960 12 2 18 16.5 133.2 940 0 9 -- Chart
1960 12 3 00 17.2 133.2 935 0 9 -- Chart
1960 12 3 06 18.0 132.8 925 0 9 -- Chart
1960 12 3 12 18.9 132.5 925 0 9 -- Chart
1960 12 3 18 19.8 132.3 930 0 9 -- Chart
1960 12 4 00 21.2 132.6 935 0 9 -- Chart
1960 12 4 06 22.6 133.7 935 0 9 -- Chart
1960 12 4 12 24.8 135.9 940 0 9 -- Chart
1960 12 4 18 27.0 138.4 950 0 9 -- Chart
1960 12 5 00 29.0 140.7 965 0 9 -- Chart
1960 12 5 06 32.0 144.4 975 0 9 -- Chart
1960 12 5 12 36.0 150.0 975 0 9 -- Chart
1960 12 5 18 39.0 156.5 975 0 9 -- Chart
1960 12 6 00 40.0 162.2 975 0 9 -- Chart
1960 12 6 06 40.0 169.0 978 0 6 -- Chart
1960 12 6 12 41.0 176.0 986 0 6 -- Chart
1960 12 6 18 41.0 184.0 984 0 6 -- Chart
Japan Meteorological Agency Best Track Data | Correction Date : 2013-03-19
< Typhoon 196025 1960 Season Typhoon 196027 >

Help